地図

経路データ

SID SEASON NUMBER BASIN SUBBASIN NAME ISO_TIME NATURE LAT LON WMO_WIND WMO_PRES WMO_AGENCY TRACK_TYPE DIST2LAND LANDFALL IFLAG USA_AGENCY USA_ATCF_ID USA_LAT USA_LON USA_RECORD USA_STATUS USA_WIND USA_PRES USA_SSHS USA_R34_NE USA_R34_SE USA_R34_SW USA_R34_NW USA_R50_NE USA_R50_SE USA_R50_SW USA_R50_NW USA_R64_NE USA_R64_SE USA_R64_SW USA_R64_NW USA_POCI USA_ROCI USA_RMW USA_EYE TOKYO_LAT TOKYO_LON TOKYO_GRADE TOKYO_WIND TOKYO_PRES TOKYO_R50_DIR TOKYO_R50_LONG TOKYO_R50_SHORT TOKYO_R30_DIR TOKYO_R30_LONG TOKYO_R30_SHORT TOKYO_LAND CMA_LAT CMA_LON CMA_CAT CMA_WIND CMA_PRES HKO_LAT HKO_LON HKO_CAT HKO_WIND HKO_PRES NEWDELHI_LAT NEWDELHI_LON NEWDELHI_GRADE NEWDELHI_WIND NEWDELHI_PRES NEWDELHI_CI NEWDELHI_DP NEWDELHI_POCI REUNION_LAT REUNION_LON REUNION_TYPE REUNION_WIND REUNION_PRES REUNION_TNUM REUNION_CI REUNION_RMW REUNION_R34_NE REUNION_R34_SE REUNION_R34_SW REUNION_R34_NW REUNION_R50_NE REUNION_R50_SE REUNION_R50_SW REUNION_R50_NW REUNION_R64_NE REUNION_R64_SE REUNION_R64_SW REUNION_R64_NW BOM_LAT BOM_LON BOM_TYPE BOM_WIND BOM_PRES BOM_TNUM BOM_CI BOM_RMW BOM_R34_NE BOM_R34_SE BOM_R34_SW BOM_R34_NW BOM_R50_NE BOM_R50_SE BOM_R50_SW BOM_R50_NW BOM_R64_NE BOM_R64_SE BOM_R64_SW BOM_R64_NW BOM_ROCI BOM_POCI BOM_EYE BOM_POS_METHOD BOM_PRES_METHOD NADI_LAT NADI_LON NADI_CAT NADI_WIND NADI_PRES WELLINGTON_LAT WELLINGTON_LON WELLINGTON_WIND WELLINGTON_PRES DS824_LAT DS824_LON DS824_STAGE DS824_WIND DS824_PRES TD9636_LAT TD9636_LON TD9636_STAGE TD9636_WIND TD9636_PRES TD9635_LAT TD9635_LON TD9635_WIND TD9635_PRES TD9635_ROCI NEUMANN_LAT NEUMANN_LON NEUMANN_CLASS NEUMANN_WIND NEUMANN_PRES MLC_LAT MLC_LON MLC_CLASS MLC_WIND MLC_PRES USA_GUST BOM_GUST BOM_GUST_PER REUNION_GUST REUNION_GUST_PER USA_SEAHGT USA_SEARAD_NE USA_SEARAD_SE USA_SEARAD_SW USA_SEARAD_NW STORM_SPEED STORM_DIR
1939254N10148 1939 59 WP MM NOT_NAMED 1939-09-11 09:00:00 NR 10.0000 148.000 main 1357 1356 __________O___ -1 10.0000 148.000 4 17 282
1939254N10148 1939 59 WP MM NOT_NAMED 1939-09-11 12:00:00 NR 10.1790 147.139 main 1378 1378 __________P___ -1 10.1790 147.139 4 17 282
1939254N10148 1939 59 WP MM NOT_NAMED 1939-09-11 15:00:00 NR 10.3453 146.321 main 1389 1389 __________P___ -1 10.3453 146.321 4 16 282
1939254N10148 1939 59 WP MM NOT_NAMED 1939-09-11 18:00:00 NR 10.4889 145.593 main 1416 1416 __________P___ -1 10.4889 145.593 4 13 281
1939254N10148 1939 59 WP MM NOT_NAMED 1939-09-11 21:00:00 NR 10.6000 145.000 main 1434 1434 __________O___ -1 10.6000 145.000 4 10 280
1939254N10148 1939 59 WP MM NOT_NAMED 1939-09-12 00:00:00 NR 10.6750 144.569 main 1451 1451 __________P___ -1 10.6750 144.569 4 7 280
1939254N10148 1939 59 WP MM NOT_NAMED 1939-09-12 03:00:00 NR 10.7335 144.252 main 1456 1456 __________P___ -1 10.7335 144.252 4 6 282
1939254N10148 1939 59 WP MM NOT_NAMED 1939-09-12 06:00:00 NR 10.8003 143.984 main 1473 1473 __________P___ -1 10.8003 143.984 4 6 287
1939254N10148 1939 59 WP MM NOT_NAMED 1939-09-12 09:00:00 NR 10.9000 143.700 main 1491 1491 __________O___ -1 10.9000 143.700 4 8 292
1939254N10148 1939 59 WP MM NOT_NAMED 1939-09-12 12:00:00 NR 11.0806 143.276 main 1523 1522 __________P___ -1 11.0806 143.276 4 9 295
1939254N10148 1939 59 WP MM NOT_NAMED 1939-09-12 15:00:00 NR 11.2929 142.828 main 1532 1528 __________P___ -1 11.2929 142.828 4 10 296
1939254N10148 1939 59 WP MM NOT_NAMED 1939-09-12 18:00:00 NR 11.5087 142.391 main 1539 1536 __________P___ -1 11.5087 142.391 4 9 297
1939254N10148 1939 59 WP MM NOT_NAMED 1939-09-12 21:00:00 NR 11.7000 142.000 main 1548 1545 __________O___ -1 11.7000 142.000 4 7 295
1939254N10148 1939 59 WP MM NOT_NAMED 1939-09-13 00:00:00 NR 11.8243 141.699 main 1550 1546 __________P___ -1 11.8243 141.699 4 6 292
1939254N10148 1939 59 WP MM NOT_NAMED 1939-09-13 03:00:00 NR 11.9221 141.447 main 1547 1547 __________P___ -1 11.9221 141.447 4 5 291
1939254N10148 1939 59 WP MM NOT_NAMED 1939-09-13 06:00:00 NR 12.0088 141.221 main 1549 1545 __________P___ -1 12.0088 141.221 4 5 292
1939254N10148 1939 59 WP MM NOT_NAMED 1939-09-13 09:00:00 NR 12.1000 141.000 main 1551 1547 __________O___ -1 12.1000 141.000 4 5 294
1939254N10148 1939 59 WP MM NOT_NAMED 1939-09-13 12:00:00 NR 12.2137 140.746 main 1550 1550 __________P___ -1 12.2137 140.746 4 6 295
1939254N10148 1939 59 WP MM NOT_NAMED 1939-09-13 15:00:00 NR 12.3349 140.492 main 1553 1553 __________P___ -1 12.3349 140.492 4 6 297
1939254N10148 1939 59 WP MM NOT_NAMED 1939-09-13 18:00:00 NR 12.4637 140.243 main 1563 1554 __________P___ -1 12.4637 140.243 4 6 299
1939254N10148 1939 59 WP MM NOT_NAMED 1939-09-13 21:00:00 NR 12.6000 140.000 main 1554 1536 __________O___ -1 12.6000 140.000 4 5 300
1939254N10148 1939 59 WP MM NOT_NAMED 1939-09-14 00:00:00 NR 12.7265 139.768 main 1536 1515 __________P___ -1 12.7265 139.768 4 5 300
1939254N10148 1939 59 WP MM NOT_NAMED 1939-09-14 03:00:00 NR 12.8624 139.542 main 1506 1486 __________P___ -1 12.8624 139.542 4 5 304
1939254N10148 1939 59 WP MM NOT_NAMED 1939-09-14 06:00:00 NR 13.0171 139.321 main 1486 1467 __________P___ -1 13.0171 139.321 4 5 308
1939254N10148 1939 59 WP MM NOT_NAMED 1939-09-14 09:00:00 NR 13.2000 139.100 main 1467 1447 __________O___ -1 13.2000 139.100 4 6 312
1939254N10148 1939 59 WP MM NOT_NAMED 1939-09-14 12:00:00 NR 13.4294 138.851 main 1449 1421 __________P___ -1 13.4294 138.851 4 7 315
1939254N10148 1939 59 WP MM NOT_NAMED 1939-09-14 15:00:00 NR 13.6851 138.605 main 1423 1406 __________P___ -1 13.6851 138.605 4 7 319
1939254N10148 1939 59 WP MM NOT_NAMED 1939-09-14 18:00:00 NR 13.9482 138.382 main 1406 1390 __________P___ -1 13.9482 138.382 4 7 323
1939254N10148 1939 59 WP MM NOT_NAMED 1939-09-14 21:00:00 NR 14.2000 138.200 main 1393 1384 __________O___ -1 14.2000 138.200 4 5 329
1939254N10148 1939 59 WP MM NOT_NAMED 1939-09-15 00:00:00 NR 14.4101 138.098 main 1386 1379 __________P___ -1 14.4101 138.098 4 4 339
1939254N10148 1939 59 WP MM NOT_NAMED 1939-09-15 03:00:00 NR 14.6073 138.034 main 1379 1379 __________P___ -1 14.6073 138.034 4 4 344
1939254N10148 1939 59 WP MM NOT_NAMED 1939-09-15 06:00:00 NR 14.8008 137.979 main 1382 1374 __________P___ -1 14.8008 137.979 4 4 341
1939254N10148 1939 59 WP MM NOT_NAMED 1939-09-15 09:00:00 NR 15.0000 137.900 main 1376 1360 __________O___ -1 15.0000 137.900 4 5 330
1939254N10148 1939 59 WP MM NOT_NAMED 1939-09-15 12:00:00 NR 15.2302 137.722 main 1360 1344 __________P___ -1 15.2302 137.722 4 6 322
1939254N10148 1939 59 WP MM NOT_NAMED 1939-09-15 15:00:00 NR 15.4652 137.520 main 1347 1332 __________P___ -1 15.4652 137.520 4 6 321
1939254N10148 1939 59 WP MM NOT_NAMED 1939-09-15 18:00:00 NR 15.6927 137.334 main 1332 1325 __________P___ -1 15.6927 137.334 4 5 325
1939254N10148 1939 59 WP MM NOT_NAMED 1939-09-15 21:00:00 NR 15.9000 137.200 main 1328 1328 __________O___ -1 15.9000 137.200 4 4 336
1939254N10148 1939 59 WP MM NOT_NAMED 1939-09-16 00:00:00 NR 16.0633 137.159 main 1335 1335 __________P___ -1 16.0633 137.159 4 3 0
1939254N10148 1939 59 WP MM NOT_NAMED 1939-09-16 03:00:00 NR 16.2074 137.175 main 1338 1338 __________P___ -1 16.2074 137.175 4 3 14
1939254N10148 1939 59 WP MM NOT_NAMED 1939-09-16 06:00:00 NR 16.3478 137.228 main 1342 1342 __________P___ -1 16.3478 137.228 4 3 22
1939254N10148 1939 59 WP MM NOT_NAMED 1939-09-16 09:00:00 NR 16.5000 137.300 main 1359 1359 __________O___ -1 16.5000 137.300 4 4 20
1939254N10148 1939 59 WP MM NOT_NAMED 1939-09-16 12:00:00 NR 16.6978 137.365 main 1376 1376 __________P___ -1 16.6978 137.365 4 4 19
1939254N10148 1939 59 WP MM NOT_NAMED 1939-09-16 15:00:00 NR 16.9075 137.442 main 1384 1384 __________P___ -1 16.9075 137.442 4 4 20
1939254N10148 1939 59 WP MM NOT_NAMED 1939-09-16 18:00:00 NR 17.1135 137.524 main 1402 1402 __________P___ -1 17.1135 137.524 4 4 20
1939254N10148 1939 59 WP MM NOT_NAMED 1939-09-16 21:00:00 NR 17.3000 137.600 main 1420 1420 __________O___ -1 17.3000 137.600 4 3 20
1939254N10148 1939 59 WP MM NOT_NAMED 1939-09-17 00:00:00 NR 17.4384 137.649 main 1425 1425 __________P___ -1 17.4384 137.649 4 3 18
1939254N10148 1939 59 WP MM NOT_NAMED 1939-09-17 03:00:00 NR 17.5574 137.693 main 1443 1443 __________P___ -1 17.5574 137.693 4 3 21
1939254N10148 1939 59 WP MM NOT_NAMED 1939-09-17 06:00:00 NR 17.6728 137.740 main 1447 1447 __________P___ -1 17.6728 137.740 4 3 24
1939254N10148 1939 59 WP MM NOT_NAMED 1939-09-17 09:00:00 NR 17.8000 137.800 main 1462 1462 __________O___ -1 17.8000 137.800 4 3 27
1939254N10148 1939 59 WP MM NOT_NAMED 1939-09-17 12:00:00 NR 17.9647 137.902 main 1480 1480 __________P___ -1 17.9647 137.902 4 4 31
1939254N10148 1939 59 WP MM NOT_NAMED 1939-09-17 15:00:00 NR 18.1426 138.015 main 1495 1495 __________P___ -1 18.1426 138.015 4 4 30
1939254N10148 1939 59 WP MM NOT_NAMED 1939-09-17 18:00:00 NR 18.3241 138.120 main 1514 1514 __________P___ -1 18.3241 138.120 4 4 27
1939254N10148 1939 59 WP MM NOT_NAMED 1939-09-17 21:00:00 NR 18.5000 138.200 main 1533 1533 __________O___ -1 18.5000 138.200 4 4 21
1939254N10148 1939 59 WP MM NOT_NAMED 1939-09-18 00:00:00 NR 18.6571 138.249 main 1542 1542 __________P___ -1 18.6571 138.249 4 3 12
1939254N10148 1939 59 WP MM NOT_NAMED 1939-09-18 03:00:00 NR 18.8074 138.267 main 1557 1552 __________P___ -1 18.8074 138.267 4 3 0
1939254N10148 1939 59 WP MM NOT_NAMED 1939-09-18 06:00:00 NR 18.9540 138.252 main 1542 1527 __________P___ -1 18.9540 138.252 4 3 346
1939254N10148 1939 59 WP MM NOT_NAMED 1939-09-18 09:00:00 NR 19.1000 138.200 main 1527 1503 __________O___ -1 19.1000 138.200 4 3 337
1939254N10148 1939 59 WP MM NOT_NAMED 1939-09-18 12:00:00 NR 19.2703 138.115 main 1503 1488 __________P___ -1 19.2703 138.115 4 4 330
1939254N10148 1939 59 WP MM NOT_NAMED 1939-09-18 15:00:00 NR 19.4375 137.995 main 1488 1463 __________P___ -1 19.4375 137.995 4 4 322
1939254N10148 1939 59 WP MM NOT_NAMED 1939-09-18 18:00:00 NR 19.5860 137.853 main 1463 1443 __________P___ -1 19.5860 137.853 4 4 313
1939254N10148 1939 59 WP MM NOT_NAMED 1939-09-18 21:00:00 NR 19.7000 137.700 main 1443 1439 __________O___ -1 19.7000 137.700 4 3 301
1939254N10148 1939 59 WP MM NOT_NAMED 1939-09-19 00:00:00 NR 19.7487 137.565 main 1439 1419 __________P___ -1 19.7487 137.565 4 3 284
1939254N10148 1939 59 WP MM NOT_NAMED 1939-09-19 03:00:00 NR 19.7649 137.422 main 1419 1414 __________P___ -1 19.7649 137.422 4 3 275
1939254N10148 1939 59 WP MM NOT_NAMED 1939-09-19 06:00:00 NR 19.7737 137.268 main 1414 1405 __________P___ -1 19.7737 137.268 4 3 277
1939254N10148 1939 59 WP MM NOT_NAMED 1939-09-19 09:00:00 NR 19.8000 137.100 main 1405 1396 __________O___ -1 19.8000 137.100 4 4 282
1939254N10148 1939 59 WP MM NOT_NAMED 1939-09-19 12:00:00 NR 19.8502 136.886 main 1386 1377 __________P___ -1 19.8502 136.886 4 4 287
1939254N10148 1939 59 WP MM NOT_NAMED 1939-09-19 15:00:00 NR 19.9253 136.663 main 1377 1358 __________P___ -1 19.9253 136.663 4 4 295
1939254N10148 1939 59 WP MM NOT_NAMED 1939-09-19 18:00:00 NR 20.0377 136.458 main 1358 1329 __________P___ -1 20.0377 136.458 4 4 309
1939254N10148 1939 59 WP MM NOT_NAMED 1939-09-19 21:00:00 NR 20.2000 136.300 main 1329 1305 __________O___ -1 20.2000 136.300 4 5 326
1939254N10148 1939 59 WP MM NOT_NAMED 1939-09-20 00:00:00 NR 20.4164 136.192 main 1305 1270 __________P___ -1 20.4164 136.192 4 5 342
1939254N10148 1939 59 WP MM NOT_NAMED 1939-09-20 03:00:00 NR 20.6822 136.138 main 1270 1239 __________P___ -1 20.6822 136.138 4 6 355
1939254N10148 1939 59 WP MM NOT_NAMED 1939-09-20 06:00:00 NR 20.9820 136.139 main 1239 1213 __________P___ -1 20.9820 136.139 4 6 5
1939254N10148 1939 59 WP MM NOT_NAMED 1939-09-20 09:00:00 NR 21.3000 136.200 main 1213 1188 __________O___ -1 21.3000 136.200 4 7 16
1939254N10148 1939 59 WP MM NOT_NAMED 1939-09-20 12:00:00 NR 21.6190 136.337 main 1188 1168 __________P___ -1 21.6190 136.337 4 7 25
1939254N10148 1939 59 WP MM NOT_NAMED 1939-09-20 15:00:00 NR 21.9503 136.526 main 1158 1139 __________P___ -1 21.9503 136.526 4 8 29
1939254N10148 1939 59 WP MM NOT_NAMED 1939-09-20 18:00:00 NR 22.2815 136.728 main 1139 1121 __________P___ -1 22.2815 136.728 4 7 28
1939254N10148 1939 59 WP MM NOT_NAMED 1939-09-20 21:00:00 NR 22.6000 136.900 main 1121 1107 __________O___ -1 22.6000 136.900 4 6 21
1939254N10148 1939 59 WP MM NOT_NAMED 1939-09-21 00:00:00 NR 22.8567 136.975 main 1098 1078 __________P___ -1 22.8567 136.975 4 5 12
1939254N10148 1939 59 WP MM NOT_NAMED 1939-09-21 03:00:00 NR 23.1048 137.016 main 1078 1049 __________P___ -1 23.1048 137.016 4 5 8
1939254N10148 1939 59 WP MM NOT_NAMED 1939-09-21 06:00:00 NR 23.3755 137.050 main 1049 1026 __________P___ -1 23.3755 137.050 4 6 7
1939254N10148 1939 59 WP MM NOT_NAMED 1939-09-21 09:00:00 NR 23.7000 137.100 main 1026 994 __________O___ -1 23.7000 137.100 4 8 11
1939254N10148 1939 59 WP MM NOT_NAMED 1939-09-21 12:00:00 NR 24.1297 137.203 main 994 954 __________P___ -1 24.1297 137.203 4 9 13
1939254N10148 1939 59 WP MM NOT_NAMED 1939-09-21 15:00:00 NR 24.6126 137.327 main 954 915 __________P___ -1 24.6126 137.327 4 10 14
1939254N10148 1939 59 WP MM NOT_NAMED 1939-09-21 18:00:00 NR 25.1141 137.463 main 922 885 __________P___ -1 25.1141 137.463 4 10 14
1939254N10148 1939 59 WP MM NOT_NAMED 1939-09-21 21:00:00 NR 25.6000 137.600 main 885 854 __________O___ -1 25.6000 137.600 4 8 12
1939254N10148 1939 59 WP MM NOT_NAMED 1939-09-22 00:00:00 NR 25.9395 137.656 main 856 813 __________P___ -1 25.9395 137.656 4 7 10
1939254N10148 1939 59 WP MM NOT_NAMED 1939-09-22 03:00:00 NR 26.2711 137.722 main 813 782 __________P___ -1 26.2711 137.722 4 8 14
1939254N10148 1939 59 WP MM NOT_NAMED 1939-09-22 06:00:00 NR 26.6672 137.852 main 774 726 __________P___ -1 26.6672 137.852 4 10 20
1939254N10148 1939 59 WP MM NOT_NAMED 1939-09-22 09:00:00 NR 27.2000 138.100 main 726 661 __________O___ -1 27.2000 138.100 4 14 24
1939254N10148 1939 59 WP MM NOT_NAMED 1939-09-22 12:00:00 NR 27.9724 138.500 main 655 596 __________P___ -1 27.9724 138.500 4 19 26
1939254N10148 1939 59 WP MM NOT_NAMED 1939-09-22 15:00:00 NR 28.8796 139.032 main 586 538 __________P___ -1 28.8796 139.032 4 21 29
1939254N10148 1939 59 WP MM NOT_NAMED 1939-09-22 18:00:00 NR 29.8469 139.673 main 541 449 __________P___ -1 29.8469 139.673 4 23 32
1939254N10148 1939 59 WP MM NOT_NAMED 1939-09-22 21:00:00 NR 30.8000 140.400 main 449 392 __________O___ -1 30.8000 140.400 4 21 37
1939254N10148 1939 59 WP MM NOT_NAMED 1939-09-23 00:00:00 NR 31.5339 141.129 main 395 348 __________P___ -1 31.5339 141.129 4 20 42
1939254N10148 1939 59 WP MM NOT_NAMED 1939-09-23 03:00:00 NR 32.2548 141.937 main 343 323 __________P___ -1 32.2548 141.937 4 21 43
1939254N10148 1939 59 WP MM NOT_NAMED 1939-09-23 06:00:00 NR 33.0483 142.825 main 329 324 __________P___ -1 33.0483 142.825 4 23 42
1939254N10148 1939 59 WP MM NOT_NAMED 1939-09-23 09:00:00 NR 34.0000 143.800 main 324 322 __________O___ -1 34.0000 143.800 4 28 38
1939254N10148 1939 59 WP MM NOT_NAMED 1939-09-23 12:00:00 NR 35.2716 144.949 main 363 363 __________P___ -1 35.2716 144.949 4 33 36
1939254N10148 1939 59 WP MM NOT_NAMED 1939-09-23 15:00:00 NR 36.6908 146.195 main 450 449 __________P___ -1 36.6908 146.195 4 35 35
1939254N10148 1939 59 WP MM NOT_NAMED 1939-09-23 18:00:00 NR 38.1386 147.446 main 483 483 __________P___ -1 38.1386 147.446 4 34 34
1939254N10148 1939 59 WP MM NOT_NAMED 1939-09-23 21:00:00 NR 39.5000 148.600 main 485 432 __________O___ -1 39.5000 148.600 4 29 31
1939254N10148 1939 59 WP MM NOT_NAMED 1939-09-24 00:00:00 NR 40.6224 149.396 main 432 403 __________P___ -1 40.6224 149.396 4 24 27
1939254N10148 1939 59 WP MM NOT_NAMED 1939-09-24 03:00:00 NR 41.6549 150.075 main 398 336 __________P___ -1 41.6549 150.075 4 23 27
1939254N10148 1939 59 WP MM NOT_NAMED 1939-09-24 06:00:00 NR 42.6360 150.789 main 339 277 __________P___ -1 42.6360 150.789 4 23 32
1939254N10148 1939 59 WP MM NOT_NAMED 1939-09-24 09:00:00 NR 43.6000 151.700 main 272 252 __________O___ -1 43.6000 151.700 4 25 39
1939254N10148 1939 59 WP MM NOT_NAMED 1939-09-24 12:00:00 NR 44.5687 152.942 main 255 255 __________P___ -1 44.5687 152.942 4 28 46
1939254N10148 1939 59 WP MM NOT_NAMED 1939-09-24 15:00:00 NR 45.5339 154.490 main 323 323 __________P___ -1 45.5339 154.490 4 30 51
1939254N10148 1939 59 WP MM NOT_NAMED 1939-09-24 18:00:00 NR 46.4815 156.270 main 394 354 __________P___ -1 46.4815 156.270 4 32 54
1939254N10148 1939 59 WP MM NOT_NAMED 1939-09-24 21:00:00 NR 47.4000 158.200 main 353 __________O___ -1 47.4000 158.200 4 32 55

デジタル台風データ・検索

IBTrACS Databaseについて

本データベースは、米国NOAAが公開する1842年以降の世界の熱帯低気圧のベストトラックデータアーカイブInternational Best Track Archive for Climate Stewardship (IBTrACS)を、ウェブで閲覧しやすい形式に変換したものです。

最終更新日:2021-10-21